Time;durP1;ratioP1;P1;durP2;ratioP2;P2;SDS_P1;SDS_P2;PMS_P1;PMS_P2;Temp;Humidity;BMP_temperature;BMP_pressure;BME280_temperature;BME280_humidity;BME280_pressure;Samples;Min_cycle;Max_cycle;Signal;HPM_P1;HPM_P2
2022/10/03 00:02:50;;;;;;;0.57;0.40;;;12.50;99.90;;;;;;4971194;28;20026;-76
2022/10/03 00:05:48;;;;;;;1.25;0.20;;;12.40;99.90;;;;;;4971301;28;20050;-76
2022/10/03 00:08:45;;;;;;;0.85;0.85;;;12.50;99.90;;;;;;4971147;28;20046;-76
2022/10/03 00:11:14;;;;;;;0.35;0.20;;;12.40;99.90;;;;;;4971487;28;20046;-76
2022/10/03 00:14:04;;;;;;;0.68;0.38;;;12.40;99.90;;;;;;4971409;28;20023;-76
2022/10/03 00:16:50;;;;;;;0.47;0.47;;;12.40;99.90;;;;;;4971271;28;20040;-76
2022/10/03 00:19:37;;;;;;;0.65;0.52;;;12.40;99.90;;;;;;4971170;28;20022;-76
2022/10/03 00:22:37;;;;;;;0.32;0.32;;;12.40;99.90;;;;;;4971153;28;20027;-77
2022/10/03 00:25:42;;;;;;;0.73;0.43;;;12.40;99.90;;;;;;4970144;28;20035;-76
2022/10/03 00:28:40;;;;;;;0.70;0.63;;;12.40;99.90;;;;;;4971187;28;20043;-76
2022/10/03 00:31:24;;;;;;;0.60;0.60;;;12.40;99.90;;;;;;4970520;28;20078;-76
2022/10/03 00:34:22;;;;;;;0.52;0.47;;;12.40;99.90;;;;;;4969849;28;20258;-76
2022/10/03 00:37:12;;;;;;;0.30;0.30;;;12.40;99.90;;;;;;4970818;28;20092;-76
2022/10/03 00:40:08;;;;;;;0.82;0.55;;;12.40;99.90;;;;;;4969282;28;20051;-76
2022/10/03 00:42:39;;;;;;;1.85;0.68;;;12.40;99.90;;;;;;4970880;28;20510;-76
2022/10/03 00:45:23;;;;;;;0.38;0.38;;;12.40;99.90;;;;;;4968866;28;20031;-76
2022/10/03 00:48:27;;;;;;;3.60;0.75;;;12.40;99.90;;;;;;4969345;28;20419;-77
2022/10/03 00:51:16;;;;;;;0.45;0.30;;;12.40;99.90;;;;;;4967465;28;20077;-76
2022/10/03 00:53:53;;;;;;;0.33;0.20;;;12.10;99.90;;;;;;4969538;28;20026;-76
2022/10/03 00:56:31;;;;;;;0.13;0.13;;;12.40;99.90;;;;;;4969017;28;20387;-76
2022/10/03 00:59:28;;;;;;;0.60;0.60;;;12.40;99.90;;;;;;4968489;28;20058;-75
2022/10/03 01:01:54;;;;;;;1.15;0.95;;;12.40;99.90;;;;;;4968368;28;20077;-76
2022/10/03 01:04:48;;;;;;;0.35;0.35;;;12.40;99.90;;;;;;4970487;28;20027;-76
2022/10/03 01:07:26;;;;;;;0.65;0.50;;;12.30;99.90;;;;;;4970435;28;20050;-76
2022/10/03 01:10:37;;;;;;;1.08;1.00;;;12.20;99.90;;;;;;4972362;28;20030;-76
2022/10/03 01:13:09;;;;;;;0.60;0.60;;;12.30;99.90;;;;;;4973647;28;20038;-76
2022/10/03 01:16:09;;;;;;;1.40;1.00;;;12.30;99.90;;;;;;4974244;28;20069;-76
2022/10/03 01:19:01;;;;;;;2.40;0.75;;;12.20;99.90;;;;;;4972579;28;20393;-76
2022/10/03 01:21:42;;;;;;;1.08;0.93;;;12.30;99.90;;;;;;4973643;28;20069;-76
2022/10/03 01:24:50;;;;;;;0.65;0.65;;;12.20;99.90;;;;;;4973816;28;20464;-76
2022/10/03 01:30:46;;;;;;;4.38;1.00;;;12.20;99.90;;;;;;4973893;28;20034;-76
2022/10/03 01:33:22;;;;;;;1.23;1.13;;;12.20;99.90;;;;;;4973818;28;20033;-75
2022/10/03 01:36:03;;;;;;;2.83;1.85;;;12.20;99.90;;;;;;4974314;28;20066;-76
2022/10/03 01:38:43;;;;;;;1.90;1.80;;;12.20;99.90;;;;;;4972200;28;20051;-76
2022/10/03 01:41:32;;;;;;;1.45;0.95;;;12.20;99.90;;;;;;4988430;28;20484;-76
2022/10/03 01:44:41;;;;;;;1.52;1.35;;;12.20;99.90;;;;;;4971964;28;20031;-76
2022/10/03 01:47:18;;;;;;;1.63;1.40;;;12.20;99.90;;;;;;4975258;28;20301;-76
2022/10/03 01:49:53;;;;;;;1.48;1.13;;;12.20;99.90;;;;;;4972191;28;20022;-76
2022/10/03 01:52:37;;;;;;;5.47;1.13;;;12.20;99.90;;;;;;4988251;28;20506;-76
2022/10/03 01:55:11;;;;;;;0.85;0.85;;;12.20;99.90;;;;;;4972093;28;20053;-76
2022/10/03 01:58:01;;;;;;;1.15;0.85;;;12.20;99.90;;;;;;4973550;28;20023;-76
2022/10/03 02:00:54;;;;;;;2.38;0.73;;;12.10;99.90;;;;;;4973092;28;20023;-77
2022/10/03 02:03:26;;;;;;;1.52;1.23;;;12.10;99.90;;;;;;4952130;28;20031;-76
2022/10/03 02:06:28;;;;;;;1.05;0.98;;;12.20;99.90;;;;;;4972873;28;20511;-76
2022/10/03 02:09:10;;;;;;;2.65;1.83;;;12.20;99.90;;;;;;4971911;28;20051;-76
2022/10/03 02:11:49;;;;;;;2.83;1.88;;;12.10;99.90;;;;;;4988150;28;20023;-76
2022/10/03 02:14:47;;;;;;;6.18;1.90;;;12.00;99.90;;;;;;4972948;28;20106;-76
2022/10/03 02:17:20;;;;;;;3.35;1.55;;;12.10;99.90;;;;;;4973102;28;20040;-75
2022/10/03 02:20:22;;;;;;;3.05;1.75;;;12.10;99.90;;;;;;4971309;28;20431;-75
2022/10/03 02:22:56;;;;;;;2.60;1.98;;;12.10;99.90;;;;;;4971497;28;20133;-76
2022/10/03 02:26:01;;;;;;;2.88;2.33;;;12.10;99.90;;;;;;4972870;28;20030;-76
2022/10/03 02:28:47;;;;;;;3.80;2.58;;;12.10;99.90;;;;;;4975167;28;20040;-76
2022/10/03 02:31:42;;;;;;;4.57;3.38;;;12.00;99.90;;;;;;4986657;28;20034;-75
2022/10/03 02:34:39;;;;;;;5.00;2.92;;;12.00;99.90;;;;;;4973310;28;20542;-76
2022/10/03 02:37:26;;;;;;;4.18;2.05;;;12.00;99.90;;;;;;4973076;28;20065;-76
2022/10/03 02:40:16;;;;;;;3.92;2.28;;;12.00;99.90;;;;;;4972734;28;20081;-76
2022/10/03 02:42:46;;;;;;;3.90;2.17;;;12.00;99.90;;;;;;4967499;28;20023;-76
2022/10/03 02:45:30;;;;;;;4.38;1.77;;;11.90;99.90;;;;;;4983821;28;20031;-75
2022/10/03 02:48:19;;;;;;;10.85;1.65;;;12.00;99.90;;;;;;4969068;28;20072;-76
2022/10/03 02:51:16;;;;;;;6.60;3.42;;;12.00;99.90;;;;;;4968707;28;20058;-77
2022/10/03 02:54:02;;;;;;;1.90;1.30;;;11.90;99.90;;;;;;4983122;28;20026;-76
2022/10/03 02:57:09;;;;;;;5.07;2.20;;;11.90;99.90;;;;;;4984388;28;20428;-77
2022/10/03 03:00:03;;;;;;;3.38;1.73;;;11.90;99.90;;;;;;4966368;28;20078;-77
2022/10/03 03:02:43;;;;;;;4.32;2.35;;;11.90;99.90;;;;;;4975878;28;20018;-76
2022/10/03 03:05:27;;;;;;;2.60;2.10;;;11.90;99.90;;;;;;4973317;28;20039;-77
2022/10/03 03:07:57;;;;;;;8.50;2.50;;;11.80;99.90;;;;;;4968795;28;20047;-77
2022/10/03 03:10:53;;;;;;;1.13;1.10;;;11.80;99.90;;;;;;4975106;28;20464;-76
2022/10/03 03:13:43;;;;;;;2.70;1.30;;;11.80;99.90;;;;;;4959658;28;20031;-76
2022/10/03 03:16:28;;;;;;;4.97;2.00;;;11.80;99.90;;;;;;4977595;28;20022;-76
2022/10/03 03:19:39;;;;;;;3.22;1.58;;;11.80;99.90;;;;;;4984576;28;20365;-76
2022/10/03 03:22:11;;;;;;;2.13;1.50;;;11.80;99.90;;;;;;4965811;28;20035;-75
2022/10/03 03:24:48;;;;;;;3.88;2.25;;;11.90;99.90;;;;;;4966308;28;20500;-77
2022/10/03 03:27:33;;;;;;;1.25;1.17;;;11.80;99.90;;;;;;4980817;28;20039;-77
2022/10/03 03:30:20;;;;;;;1.45;1.25;;;11.80;99.90;;;;;;4967209;28;20023;-76
2022/10/03 03:33:11;;;;;;;2.28;2.08;;;11.70;99.90;;;;;;4970065;28;20034;-76
2022/10/03 03:36:09;;;;;;;1.77;1.67;;;11.70;99.90;;;;;;4970499;28;20030;-77
2022/10/03 03:38:46;;;;;;;3.90;1.13;;;11.60;99.90;;;;;;4971846;28;20027;-77
2022/10/03 03:41:23;;;;;;;1.42;0.70;;;11.60;99.90;;;;;;4971948;28;20077;-76
2022/10/03 03:43:58;;;;;;;1.85;1.20;;;11.50;99.90;;;;;;4971124;28;20519;-76
2022/10/03 03:46:45;;;;;;;3.30;1.55;;;11.60;99.90;;;;;;4971114;28;20031;-75
2022/10/03 03:49:22;;;;;;;2.75;1.50;;;11.50;99.90;;;;;;4971246;28;20023;-75
2022/10/03 03:52:10;;;;;;;2.67;1.80;;;11.60;99.90;;;;;;4971547;28;20026;-76
2022/10/03 03:54:56;;;;;;;3.22;1.58;;;11.60;99.90;;;;;;4971369;28;20147;-76
2022/10/03 03:57:48;;;;;;;1.58;1.48;;;11.50;99.90;;;;;;4969485;28;20492;-77
2022/10/03 04:00:36;;;;;;;2.10;1.27;;;11.50;99.90;;;;;;4971022;28;20030;-77
2022/10/03 04:03:17;;;;;;;1.83;1.70;;;11.60;99.90;;;;;;4969801;28;20031;-76
2022/10/03 04:06:16;;;;;;;2.92;2.25;;;11.60;99.90;;;;;;4970742;28;20039;-76
2022/10/03 04:09:10;;;;;;;1.55;1.45;;;11.60;99.90;;;;;;4971170;28;20054;-76
2022/10/03 04:12:11;;;;;;;2.75;2.55;;;11.60;99.90;;;;;;4971138;28;20058;-76
2022/10/03 04:15:09;;;;;;;3.15;2.40;;;11.60;99.90;;;;;;4970770;28;20022;-76
2022/10/03 04:21:11;;;;;;;2.28;2.08;;;11.60;99.90;;;;;;4970759;28;20039;-76
2022/10/03 04:23:57;;;;;;;2.45;1.83;;;11.50;99.90;;;;;;4969234;28;20043;-76
2022/10/03 04:26:36;;;;;;;3.60;2.65;;;11.60;99.90;;;;;;4970850;28;20027;-76
2022/10/03 04:29:30;;;;;;;2.00;1.40;;;11.50;99.90;;;;;;4970616;28;20023;-76
2022/10/03 04:32:16;;;;;;;2.70;2.17;;;11.60;99.90;;;;;;4970947;28;20054;-76
2022/10/03 04:35:13;;;;;;;3.40;2.28;;;11.50;99.90;;;;;;4971463;28;20026;-76
2022/10/03 04:37:55;;;;;;;6.60;1.73;;;11.50;99.90;;;;;;4970650;28;20023;-76
2022/10/03 04:41:01;;;;;;;4.38;2.05;;;11.50;99.90;;;;;;4970713;28;20050;-75
2022/10/03 04:44:00;;;;;;;4.28;2.60;;;11.50;99.90;;;;;;4972337;28;20061;-76
2022/10/03 04:46:41;;;;;;;5.80;3.35;;;11.50;99.90;;;;;;4974477;28;20131;-76
2022/10/03 04:49:34;;;;;;;6.45;3.15;;;11.50;99.90;;;;;;4974666;28;20514;-75
2022/10/03 04:52:17;;;;;;;3.97;2.88;;;11.50;99.90;;;;;;4973044;28;20431;-75
2022/10/03 04:54:46;;;;;;;4.53;2.58;;;11.60;99.90;;;;;;4974499;28;20027;-75
2022/10/03 04:57:36;;;;;;;7.63;3.35;;;11.60;99.90;;;;;;4974287;28;20034;-75
2022/10/03 05:00:34;;;;;;;4.38;2.75;;;11.60;99.90;;;;;;4973884;28;20368;-75
2022/10/03 05:03:12;;;;;;;7.35;3.92;;;11.60;99.90;;;;;;4974060;28;20035;-75
2022/10/03 05:06:05;;;;;;;4.38;3.97;;;11.50;99.90;;;;;;4974132;28;20126;-75
2022/10/03 05:09:15;;;;;;;7.45;3.60;;;11.50;99.90;;;;;;4974035;28;20047;-76
2022/10/03 05:12:10;;;;;;;5.80;3.30;;;11.60;99.90;;;;;;4974245;28;20089;-76
2022/10/03 05:15:17;;;;;;;6.70;4.97;;;11.50;99.90;;;;;;4979190;28;20388;-76
2022/10/03 05:17:51;;;;;;;8.15;4.32;;;11.50;99.90;;;;;;4970804;28;20037;-74
2022/10/03 05:20:54;;;;;;;10.75;5.82;;;11.50;99.90;;;;;;4971037;28;20049;-76
2022/10/03 05:23:46;;;;;;;12.68;7.13;;;11.50;99.90;;;;;;4973316;28;20042;-76
2022/10/03 05:26:28;;;;;;;9.07;6.35;;;11.50;99.90;;;;;;4973844;28;20480;-77
2022/10/03 05:29:02;;;;;;;20.77;7.55;;;11.50;99.90;;;;;;4973100;28;20101;-76
2022/10/03 05:32:00;;;;;;;8.52;6.90;;;11.40;99.90;;;;;;4974044;28;20132;-77
2022/10/03 05:35:07;;;;;;;17.40;8.30;;;11.40;99.90;;;;;;4974044;28;20034;-76
2022/10/03 05:38:03;;;;;;;14.75;7.82;;;11.40;99.90;;;;;;4952820;28;20078;-76
2022/10/03 05:40:33;;;;;;;11.98;6.97;;;11.40;99.90;;;;;;4973427;28;20037;-77
2022/10/03 05:43:13;;;;;;;20.20;7.47;;;11.40;99.90;;;;;;4974691;28;20078;-77
2022/10/03 05:46:07;;;;;;;15.32;8.05;;;11.40;99.90;;;;;;4974108;28;20027;-77
2022/10/03 05:49:25;;;;;;;14.20;7.35;;;11.40;99.90;;;;;;4974605;28;20035;-77
2022/10/03 05:52:25;;;;;;;14.00;7.22;;;11.40;99.90;;;;;;4955548;28;20039;-81
2022/10/03 05:55:06;;;;;;;12.38;8.70;;;11.40;99.90;;;;;;4972806;28;20056;-78
2022/10/03 05:58:04;;;;;;;9.93;6.10;;;11.40;99.90;;;;;;4976047;28;20030;-78
2022/10/03 06:00:57;;;;;;;11.40;7.55;;;11.30;99.90;;;;;;4997254;28;20090;-78
2022/10/03 06:03:59;;;;;;;10.25;5.32;;;11.40;99.90;;;;;;4973726;28;20034;-78
2022/10/03 06:07:11;;;;;;;12.18;6.07;;;11.50;99.90;;;;;;4988577;28;20053;-77
2022/10/03 06:10:09;;;;;;;10.68;6.32;;;11.50;99.90;;;;;;4989010;28;20574;-76
2022/10/03 06:12:56;;;;;;;9.73;5.73;;;11.40;99.90;;;;;;4974550;28;20042;-76
2022/10/03 06:15:37;;;;;;;10.45;5.57;;;11.50;99.90;;;;;;4973444;28;20400;-75
2022/10/03 06:18:31;;;;;;;12.85;7.95;;;11.50;99.90;;;;;;4971591;28;20030;-76
2022/10/03 06:21:20;;;;;;;10.57;5.05;;;11.40;99.90;;;;;;4971283;28;20035;-76
2022/10/03 06:23:51;;;;;;;11.07;5.60;;;11.40;99.90;;;;;;4979677;28;20514;-76
2022/10/03 06:26:45;;;;;;;10.88;6.05;;;11.40;99.90;;;;;;4993128;28;20046;-77
2022/10/03 06:29:36;;;;;;;14.77;7.20;;;11.40;99.90;;;;;;5002737;28;20043;-78
2022/10/03 06:32:20;;;;;;;15.25;6.43;;;11.40;99.90;;;;;;5002848;28;20360;-79
2022/10/03 06:35:01;;;;;;;9.13;7.00;;;11.30;99.90;;;;;;4982997;28;20081;-77
2022/10/03 06:37:55;;;;;;;13.52;6.75;;;11.40;99.90;;;;;;4994824;28;20066;-75
2022/10/03 06:40:58;;;;;;;11.93;7.25;;;11.40;99.90;;;;;;4981137;28;20216;-78
2022/10/03 06:43:45;;;;;;;9.15;5.95;;;11.30;99.90;;;;;;4972777;28;20033;-76
2022/10/03 06:46:49;;;;;;;14.32;7.47;;;11.40;99.90;;;;;;4973586;28;20495;-75
2022/10/03 06:49:33;;;;;;;14.13;6.82;;;11.90;99.90;;;;;;4973417;28;20030;-75
2022/10/03 06:52:15;;;;;;;10.02;5.78;;;11.20;99.90;;;;;;4974112;28;20030;-76
2022/10/03 06:55:03;;;;;;;9.55;5.40;;;11.30;99.90;;;;;;4990091;28;20041;-78
2022/10/03 06:57:50;;;;;;;10.00;6.05;;;11.30;99.90;;;;;;4972922;28;20387;-76
2022/10/03 07:00:20;;;;;;;10.00;4.57;;;11.30;99.90;;;;;;4972428;28;20022;-76
2022/10/03 07:02:55;;;;;;;20.17;9.27;;;11.20;99.90;;;;;;4972174;28;20034;-76
2022/10/03 07:05:27;;;;;;;6.22;5.57;;;11.10;99.90;;;;;;4972164;28;20054;-75
2022/10/03 07:08:04;;;;;;;12.88;6.05;;;11.20;99.90;;;;;;4970912;28;20034;-75
2022/10/03 07:10:52;;;;;;;13.07;5.72;;;11.20;99.90;;;;;;4971131;28;20056;-74
2022/10/03 07:13:38;;;;;;;9.40;5.93;;;11.20;99.90;;;;;;4974481;28;20035;-79
2022/10/03 07:16:42;;;;;;;10.35;6.22;;;11.10;99.90;;;;;;4974238;28;20100;-78
2022/10/03 07:19:38;;;;;;;9.00;3.55;;;11.10;99.90;;;;;;4982945;28;20026;-76
2022/10/03 07:22:46;;;;;;;8.40;3.38;;;11.10;99.90;;;;;;4984737;28;20050;-75
2022/10/03 07:25:29;;;;;;;13.07;5.43;;;11.10;99.90;;;;;;4974966;28;20118;-76
2022/10/03 07:28:16;;;;;;;10.93;4.57;;;11.00;99.90;;;;;;4975855;28;20483;-76
2022/10/03 07:30:57;;;;;;;7.40;4.95;;;11.00;99.90;;;;;;4977253;28;20023;-75
2022/10/03 07:33:35;;;;;;;6.60;4.25;;;11.10;99.90;;;;;;4992246;28;20054;-76
2022/10/03 07:39:24;;;;;;;6.78;5.70;;;11.00;99.90;;;;;;4976936;28;20446;-76
2022/10/03 07:42:09;;;;;;;7.05;4.53;;;11.00;99.90;;;;;;4975098;28;20029;-75
2022/10/03 07:44:54;;;;;;;9.98;4.13;;;11.00;99.90;;;;;;4976505;28;20054;-76
2022/10/03 07:47:53;;;;;;;11.30;4.65;;;11.10;99.90;;;;;;4974178;28;20458;-77
2022/10/03 07:50:38;;;;;;;;;;;11.10;99.90;;;;;;4973913;28;20027;-76
2022/10/03 07:53:36;;;;;;;7.15;4.38;;;11.10;99.90;;;;;;4975800;28;19960;-76
2022/10/03 07:56:46;;;;;;;5.25;3.47;;;11.30;99.90;;;;;;4977216;28;20027;-76
2022/10/03 07:59:21;;;;;;;4.07;2.55;;;11.20;99.90;;;;;;4975353;28;20162;-75
2022/10/03 08:02:14;;;;;;;7.70;2.97;;;11.20;99.90;;;;;;4974862;28;20033;-79
2022/10/03 08:05:07;;;;;;;12.50;3.83;;;11.10;99.90;;;;;;4972902;28;20515;-77
2022/10/03 08:08:15;;;;;;;3.33;2.83;;;11.10;99.90;;;;;;4973691;28;20062;-78
2022/10/03 08:10:55;;;;;;;8.20;3.78;;;11.10;99.90;;;;;;4973820;28;20206;-76
2022/10/03 08:13:46;;;;;;;7.75;2.83;;;11.30;99.90;;;;;;4978226;28;20033;-77
2022/10/03 08:16:50;;;;;;;5.35;2.95;;;11.30;99.90;;;;;;4994311;28;20099;-78
2022/10/03 08:19:19;;;;;;;5.57;3.50;;;11.40;99.90;;;;;;4983168;28;20379;-79
2022/10/03 08:22:02;;;;;;;4.30;2.47;;;11.40;99.90;;;;;;4981282;28;20074;-76
2022/10/03 08:25:02;;;;;;;6.38;3.60;;;11.50;99.90;;;;;;4981692;28;20023;-76
2022/10/03 08:27:46;;;;;;;14.02;4.32;;;11.50;99.90;;;;;;4983204;28;20062;-76
2022/10/03 08:30:22;;;;;;;6.20;3.08;;;11.50;99.90;;;;;;4981292;28;20023;-77
2022/10/03 08:32:50;;;;;;;5.68;3.13;;;11.60;99.90;;;;;;4973895;28;20037;-77
2022/10/03 08:35:43;;;;;;;3.25;2.35;;;11.70;99.90;;;;;;4971175;28;20117;-76
2022/10/03 08:38:24;;;;;;;3.90;2.60;;;11.60;99.90;;;;;;4976707;28;20162;-76
2022/10/03 08:41:11;;;;;;;2.63;1.58;;;11.70;99.90;;;;;;4976772;28;20023;-76
2022/10/03 08:43:55;;;;;;;5.35;2.20;;;11.90;99.90;;;;;;4976439;28;20098;-76
2022/10/03 08:46:36;;;;;;;5.10;2.58;;;11.90;99.90;;;;;;4975764;28;20023;-76
2022/10/03 08:49:26;;;;;;;6.85;2.80;;;12.10;99.90;;;;;;4976640;28;20027;-77
2022/10/03 08:52:20;;;;;;;2.35;1.73;;;12.30;99.90;;;;;;4974331;28;20488;-77
2022/10/03 08:55:23;;;;;;;6.13;2.60;;;12.30;99.90;;;;;;4970314;28;20111;-78
2022/10/03 08:57:52;;;;;;;3.47;2.72;;;12.40;99.90;;;;;;4975650;28;20102;-75
2022/10/03 09:00:20;;;;;;;3.42;2.45;;;12.40;99.90;;;;;;4974435;28;20267;-77
2022/10/03 09:02:52;;;;;;;3.15;2.33;;;12.60;99.90;;;;;;4971498;28;20122;-75
2022/10/03 09:05:33;;;;;;;4.40;2.25;;;12.60;99.90;;;;;;4970746;28;20094;-76
2022/10/03 09:08:20;;;;;;;2.92;1.75;;;12.70;99.90;;;;;;4969334;28;20113;-75
2022/10/03 09:11:47;;;;;;;3.10;2.33;;;12.70;99.90;;;;;;4972750;28;20121;-76
2022/10/03 09:14:41;;;;;;;3.85;2.10;;;12.70;99.90;;;;;;4932748;29;20227;-78
2022/10/03 09:17:36;;;;;;;4.47;2.67;;;12.60;99.90;;;;;;4971803;28;20383;-75
2022/10/03 09:20:23;;;;;;;4.93;2.72;;;12.50;99.90;;;;;;4973404;28;20042;-76
2022/10/03 09:22:54;;;;;;;3.83;2.50;;;12.50;99.90;;;;;;4974183;28;20116;-76
2022/10/03 09:25:43;;;;;;;2.50;2.03;;;12.80;99.90;;;;;;4973059;28;20033;-76
2022/10/03 09:28:37;;;;;;;7.65;2.15;;;12.80;99.90;;;;;;4969895;28;20035;-76
2022/10/03 09:31:30;;;;;;;3.60;1.75;;;13.00;99.90;;;;;;4979771;28;20019;-76
2022/10/03 09:34:11;;;;;;;4.00;3.33;;;13.40;99.90;;;;;;4975483;28;20059;-76
2022/10/03 09:36:55;;;;;;;4.40;2.38;;;13.50;99.90;;;;;;4974342;28;20026;-77
2022/10/03 09:39:53;;;;;;;2.03;1.83;;;13.40;99.90;;;;;;4974436;28;20042;-77
2022/10/03 09:42:47;;;;;;;2.90;2.53;;;13.40;99.90;;;;;;4974240;28;20118;-78
2022/10/03 09:45:31;;;;;;;4.65;2.15;;;13.60;99.90;;;;;;4974727;28;20027;-78
2022/10/03 09:48:16;;;;;;;3.90;2.13;;;13.80;99.90;;;;;;4975447;28;20484;-75
2022/10/03 09:51:06;;;;;;;3.38;2.30;;;13.80;99.90;;;;;;4974547;28;20035;-76
2022/10/03 09:53:43;;;;;;;2.60;1.95;;;13.70;99.90;;;;;;4976763;28;20023;-75
2022/10/03 09:56:30;;;;;;;1.98;1.83;;;13.90;99.90;;;;;;4975250;28;20034;-77
2022/10/03 09:59:23;;;;;;;1.90;1.20;;;14.10;99.90;;;;;;4972299;28;20055;-77
2022/10/03 10:02:23;;;;;;;4.80;2.72;;;14.20;99.90;;;;;;4977027;28;20022;-76
2022/10/03 10:05:29;;;;;;;3.47;1.90;;;14.30;99.90;;;;;;4973419;28;20019;-76
2022/10/03 10:08:07;;;;;;;2.33;1.63;;;14.50;99.90;;;;;;4974652;28;20038;-76
2022/10/03 10:11:24;;;;;;;1.77;1.40;;;14.70;99.90;;;;;;4973058;28;20029;-76
2022/10/03 10:14:20;;;;;;;2.42;2.08;;;14.70;99.90;;;;;;4971687;28;20035;-75
2022/10/03 10:17:17;;;;;;;3.60;1.80;;;14.90;99.90;;;;;;4974846;28;20018;-75
2022/10/03 10:20:20;;;;;;;2.08;1.50;;;15.10;99.90;;;;;;4974492;28;20026;-75
2022/10/03 10:23:09;;;;;;;5.00;1.30;;;15.40;99.90;;;;;;4987963;28;20038;-76
2022/10/03 10:26:08;;;;;;;7.20;1.30;;;15.70;99.90;;;;;;4973263;28;20027;-76
2022/10/03 10:28:55;;;;;;;1.08;1.00;;;15.80;99.90;;;;;;4973263;28;20113;-77
2022/10/03 10:31:58;;;;;;;1.05;1.02;;;16.00;99.90;;;;;;4974232;28;20023;-76
2022/10/03 10:34:50;;;;;;;2.10;1.55;;;16.20;99.90;;;;;;4974997;28;20773;-76
2022/10/03 10:37:53;;;;;;;2.08;1.75;;;15.90;99.90;;;;;;4974042;28;20142;-76
2022/10/03 10:40:49;;;;;;;1.33;1.20;;;15.90;99.90;;;;;;4972252;28;20122;-76
2022/10/03 10:43:45;;;;;;;4.68;1.13;;;;;;;;;;4973636;28;20019;-76
2022/10/03 10:46:50;;;;;;;1.40;1.30;;;15.80;99.90;;;;;;4970892;28;20484;-76
2022/10/03 10:49:37;;;;;;;0.98;0.98;;;15.90;99.90;;;;;;4971280;28;20027;-75
2022/10/03 10:52:40;;;;;;;2.03;1.55;;;15.70;99.90;;;;;;4971484;28;20027;-76
2022/10/03 10:55:47;;;;;;;4.60;2.55;;;15.20;99.90;;;;;;4971654;28;20027;-76
2022/10/03 10:58:38;;;;;;;2.22;1.33;;;15.10;99.90;;;;;;4972370;28;20027;-76
2022/10/03 11:01:36;;;;;;;2.53;1.30;;;15.30;99.90;;;;;;4973191;28;20019;-75
2022/10/03 11:04:40;;;;;;;3.03;2.22;;;15.40;99.90;;;;;;4971667;28;20041;-76
2022/10/03 11:07:24;;;;;;;1.77;1.00;;;15.50;99.90;;;;;;4972224;28;20136;-76
2022/10/03 11:10:21;;;;;;;2.65;1.40;;;15.50;99.90;;;;;;4971574;28;20475;-76
2022/10/03 11:13:29;;;;;;;3.42;1.23;;;15.40;99.90;;;;;;4972527;28;20089;-76
2022/10/03 11:16:26;;;;;;;4.07;1.80;;;15.60;99.90;;;;;;4969956;28;20039;-75
2022/10/03 11:19:19;;;;;;;2.60;1.35;;;15.60;99.90;;;;;;4987802;28;20321;-75
2022/10/03 11:22:12;;;;;;;7.85;1.17;;;15.60;99.90;;;;;;4972048;28;20530;-76
2022/10/03 11:25:13;;;;;;;2.72;1.23;;;15.60;99.90;;;;;;4987162;28;20424;-76
2022/10/03 11:27:55;;;;;;;2.88;1.50;;;15.10;99.90;;;;;;4986953;28;20061;-78
2022/10/03 11:30:27;;;;;;;1.65;1.55;;;14.80;99.90;;;;;;4971583;28;20027;-77
2022/10/03 11:33:11;;;;;;;4.13;1.70;;;14.50;99.90;;;;;;4971582;28;20026;-76
2022/10/03 11:35:58;;;;;;;3.33;2.25;;;14.40;99.90;;;;;;4992114;28;20074;-77
2022/10/03 11:38:33;;;;;;;1.10;1.10;;;14.50;99.90;;;;;;4974580;28;20034;-76
2022/10/03 11:41:18;;;;;;;4.53;1.55;;;14.70;99.90;;;;;;4969541;28;20027;-76
2022/10/03 11:44:21;;;;;;;3.53;2.53;;;15.20;99.90;;;;;;4984361;28;20388;-77
2022/10/03 11:47:07;;;;;;;3.05;1.40;;;15.60;99.90;;;;;;4966546;28;20039;-77
2022/10/03 11:49:57;;;;;;;3.28;1.13;;;16.00;99.90;;;;;;4968344;28;20035;-77
2022/10/03 11:52:37;;;;;;;2.10;1.35;;;15.80;99.90;;;;;;4969974;28;20106;-77
2022/10/03 11:55:24;;;;;;;1.63;1.15;;;15.50;99.90;;;;;;4970193;28;20390;-77
2022/10/03 11:58:10;;;;;;;1.20;1.10;;;15.10;99.90;;;;;;4969493;28;20467;-77
2022/10/03 12:00:39;;;;;;;8.77;2.20;;;15.20;99.90;;;;;;4969953;28;20086;-78
2022/10/03 12:03:28;;;;;;;2.42;1.38;;;15.50;99.90;;;;;;4969961;28;20030;-77
2022/10/03 12:09:18;;;;;;;3.08;1.48;;;15.10;99.90;;;;;;4971637;28;20630;-77
2022/10/03 12:11:52;;;;;;;1.80;1.65;;;15.00;99.90;;;;;;4971409;28;20620;-77
2022/10/03 12:14:43;;;;;;;1.30;1.20;;;14.90;99.90;;;;;;4974249;28;20041;-77
2022/10/03 12:17:15;;;;;;;1.60;1.40;;;;;;;;;;4976039;28;20046;-77
2022/10/03 12:20:09;;;;;;;3.00;1.40;;;15.00;99.90;;;;;;4971480;28;20023;-77
2022/10/03 12:22:57;;;;;;;3.17;1.23;;;15.30;99.90;;;;;;4975558;28;20033;-78
2022/10/03 12:25:36;;;;;;;2.38;1.80;;;15.50;99.90;;;;;;4974269;28;20318;-77
2022/10/03 12:28:11;;;;;;;0.82;0.80;;;15.50;99.90;;;;;;4981518;28;20039;-77
2022/10/03 12:30:48;;;;;;;1.80;1.42;;;15.20;99.90;;;;;;4980153;28;20437;-75
2022/10/03 12:33:38;;;;;;;2.45;1.33;;;15.20;99.90;;;;;;4979527;28;20496;-76
2022/10/03 12:36:41;;;;;;;1.60;0.85;;;15.20;99.90;;;;;;4978624;28;20037;-76
2022/10/03 12:39:10;;;;;;;1.10;1.00;;;15.90;99.90;;;;;;4974119;28;20056;-77
2022/10/03 12:42:13;;;;;;;1.97;0.90;;;17.60;99.90;;;;;;4971023;28;20062;-76
2022/10/03 12:45:07;;;;;;;1.05;1.05;;;18.00;99.90;;;;;;4970881;28;20113;-77
2022/10/03 12:48:00;;;;;;;1.27;1.17;;;17.40;99.90;;;;;;4969476;28;20065;-78
2022/10/03 12:50:37;;;;;;;0.93;0.73;;;17.70;99.90;;;;;;4970220;28;20413;-77
2022/10/03 12:53:16;;;;;;;0.57;0.50;;;18.30;99.90;;;;;;4970706;28;20038;-76
2022/10/03 12:56:07;;;;;;;2.90;0.60;;;19.10;99.90;;;;;;4970998;28;20033;-76
2022/10/03 12:58:49;;;;;;;0.65;0.65;;;19.20;99.90;;;;;;4969109;28;20365;-77
2022/10/03 13:01:27;;;;;;;0.98;0.90;;;19.00;99.90;;;;;;4971001;28;20027;-77
2022/10/03 13:03:56;;;;;;;0.80;0.50;;;17.90;99.90;;;;;;4969687;28;20031;-77
2022/10/03 13:07:04;;;;;;;0.57;0.57;;;17.30;99.90;;;;;;4974120;28;20122;-78
2022/10/03 13:09:53;;;;;;;0.47;0.47;;;17.30;99.90;;;;;;4969488;28;20031;-77
2022/10/03 13:12:48;;;;;;;0.52;0.38;;;18.60;99.90;;;;;;4979621;28;20137;-77
2022/10/03 13:15:47;;;;;;;0.52;0.30;;;19.60;99.90;;;;;;4972890;28;20023;-76
2022/10/03 13:18:21;;;;;;;1.23;0.88;;;19.20;99.90;;;;;;4972816;28;20340;-76
2022/10/03 13:21:00;;;;;;;0.73;0.70;;;19.20;99.90;;;;;;4973091;28;20115;-76
2022/10/03 13:23:42;;;;;;;0.70;0.70;;;19.60;99.90;;;;;;4972763;28;20225;-77
2022/10/03 13:26:24;;;;;;;0.30;0.30;;;18.90;99.90;;;;;;4972592;28;20680;-77
2022/10/03 13:29:12;;;;;;;0.40;0.40;;;18.30;99.90;;;;;;4973621;28;20058;-76
2022/10/03 13:32:04;;;;;;;0.68;0.52;;;18.10;99.90;;;;;;4973938;28;20019;-76
2022/10/03 13:34:38;;;;;;;0.28;0.28;;;18.80;99.90;;;;;;4973238;28;20027;-77
2022/10/03 13:37:11;;;;;;;1.42;0.32;;;19.70;99.90;;;;;;4974154;28;20027;-76
2022/10/03 13:39:51;;;;;;;0.47;0.47;;;20.00;99.90;;;;;;4973872;28;20078;-76
2022/10/03 13:42:32;;;;;;;0.50;0.50;;;20.60;97.30;;;;;;4972351;28;20305;-78
2022/10/03 13:45:16;;;;;;;0.47;0.45;;;20.80;95.60;;;;;;4972736;28;20843;-78
2022/10/03 13:47:45;;;;;;;0.47;0.47;;;;;;;;;;4974137;28;20049;-78
2022/10/03 13:50:16;;;;;;;;;;;21.70;90.00;;;;;;4972658;28;20019;-79
2022/10/03 13:52:50;;;;;;;0.65;0.43;;;23.80;77.70;;;;;;4971968;28;19914;-77
2022/10/03 13:55:28;;;;;;;0.55;0.55;;;22.90;76.20;;;;;;4973499;28;20026;-79
2022/10/03 13:58:11;;;;;;;0.20;0.20;;;23.30;70.20;;;;;;4973366;28;20060;-79
2022/10/03 14:00:56;;;;;;;1.98;1.25;;;24.50;70.30;;;;;;4973002;28;20038;-80
2022/10/03 14:03:47;;;;;;;0.20;0.20;;;25.10;64.90;;;;;;4972096;28;20035;-78
2022/10/03 14:06:35;;;;;;;1.05;0.55;;;24.00;64.10;;;;;;4973024;28;20049;-75
2022/10/03 14:09:30;;;;;;;0.40;0.40;;;22.90;68.10;;;;;;4973374;28;20026;-76
2022/10/03 14:12:24;;;;;;;0.35;0.35;;;21.30;72.00;;;;;;4973238;28;20019;-76
2022/10/03 14:15:05;;;;;;;1.02;0.17;;;20.30;78.20;;;;;;4972886;28;20030;-76
2022/10/03 14:17:40;;;;;;;0.30;0.30;;;19.20;84.60;;;;;;4972643;28;20033;-76
2022/10/03 14:20:41;;;;;;;0.10;0.10;;;19.60;89.30;;;;;;4971791;28;20027;-76
2022/10/03 14:23:25;;;;;;;1.60;0.60;;;19.50;87.60;;;;;;4973045;28;20387;-76
2022/10/03 14:26:04;;;;;;;2.00;0.30;;;19.30;92.50;;;;;;4969534;28;20019;-76
2022/10/03 14:28:48;;;;;;;0.25;0.15;;;20.30;90.80;;;;;;4972192;28;20046;-78
2022/10/03 14:31:37;;;;;;;0.47;0.40;;;21.00;81.10;;;;;;4971484;28;20034;-77
2022/10/03 14:34:24;;;;;;;0.20;0.15;;;21.70;80.00;;;;;;4971226;28;20027;-78
2022/10/03 14:37:03;;;;;;;0.28;0.28;;;21.90;78.70;;;;;;4970611;28;20030;-76
2022/10/03 14:39:51;;;;;;;0.52;0.52;;;22.40;74.90;;;;;;4972443;28;20042;-75
2022/10/03 14:42:54;;;;;;;0.30;0.30;;;22.00;73.40;;;;;;4971265;28;20030;-75
2022/10/03 14:45:29;;;;;;;0.32;0.32;;;20.90;74.10;;;;;;4972486;28;20502;-75
2022/10/03 14:48:07;;;;;;;0.75;0.30;;;19.80;78.50;;;;;;4987553;28;20031;-75
2022/10/03 14:50:33;;;;;;;2.58;0.73;;;19.40;87.20;;;;;;4972406;28;20113;-75